Etusivu
METAR-TAF:

METAR-TAF

Lentoasemat :

Tongatapu, Tonga

Leveyspiiri: 21-14S, Pituuspiiri: 175-09W, korkeus merenpinnasta: 38 m

Tämänhetkinen sää

Tämä raportti tehtiin 42 minuuttia sitten, kello 14.00 UTC
tyyntä
Lämpötila 20°C
Kosteus 68%
Ilmanpaine 1015 hPa
Näkyvyys 10 km tai enemmän
Muutamia pilviä 1800 ft:n korkeudessa
Hajonneita pilviä 4000 ft:n korkeudessa

METAR: NFTF 201400Z 00000KT 9999 FEW018 BKN040 20/14 Q1015

Aika: 03:42 (14:42 UTC)

Sääennuste

Tämä raportti tehtiin 9 tuntia ja 30 minuuttia sitten, kello 05.12 UTC
Ennuste voimassa 20. päivästä klo 06 UTC - 21. päivään klo 06 UTC
Tuuli 8 kn etelästä/kaakosta
Näkyvyys 10 km tai enemmän
Hajanaisia pilviä 1800 ft:n korkeudessa

TAF: NFTF 200512Z 2006/2106 15008KT 9999 SCT018

Säähavainnot ja -ennusteet yli 4000 lentoasemalta (METAR- ja TAF-raportit).

Käytössä olevat sääasemat on merkitty karttaan keltaisilla ja punaisilla pisteillä.

Aseta hiiri pisteen päälle nähdäksesi sääaseman nimen.

Klikkaa sitten nähdäksesi säähavainnot ja -ennusteet.

Kartan vaihtaminen: klikkaa mustalla rastilla varustettuja vihreitä pisteitä, niin voit zoomata sisään; viivalla varustettua vihreää pistettä, niin voit zoomata ulos tai vihreitä nuolia, niin pääset viereisille kartoille.


METAR-TAF: